Time;durP1;ratioP1;P1;durP2;ratioP2;P2;SDS_P1;SDS_P2;PMS_P1;PMS_P2;Temp;Humidity;BMP_temperature;BMP_pressure;BME280_temperature;BME280_humidity;BME280_pressure;Samples;Min_cycle;Max_cycle;Signal;HPM_P1;HPM_P2
2023/05/12 00:01:40;;;;;;;4.57;1.60;;;;;;;12.64;47.28;100589.66;1471722;87;21435;-80
2023/05/12 00:04:07;;;;;;;7.93;2.10;;;;;;;12.58;47.33;100588.97;1477771;87;22382;-80
2023/05/12 00:06:33;;;;;;;3.97;1.90;;;;;;;12.53;47.37;100596.56;1472601;87;21376;-80
2023/05/12 00:08:59;;;;;;;3.30;1.97;;;;;;;12.50;47.39;100596.87;1471954;87;21457;-80
2023/05/12 00:11:25;;;;;;;4.50;1.70;;;;;;;12.46;47.45;100594.20;1469533;88;21354;-79
2023/05/12 00:13:53;;;;;;;7.80;2.00;;;;;;;12.43;47.33;100598.50;1474907;88;21369;-80
2023/05/12 00:16:20;;;;;;;2.97;1.70;;;;;;;12.39;47.54;100598.45;1467015;88;22569;-79
2023/05/12 00:18:46;;;;;;;6.30;2.03;;;;;;;12.35;47.51;100599.77;1473632;87;21435;-79
2023/05/12 00:21:12;;;;;;;5.73;1.50;;;;;;;12.31;47.71;100597.06;1469152;87;21339;-79
2023/05/12 00:23:38;;;;;;;2.83;1.60;;;;;;;12.26;47.83;100592.73;1476579;87;21390;-80
2023/05/12 00:26:04;;;;;;;3.63;2.07;;;;;;;12.23;48.09;100594.34;1477082;88;21383;-79
2023/05/12 00:28:30;;;;;;;4.90;1.83;;;;;;;12.18;47.98;100598.30;1475042;87;21546;-80
2023/05/12 00:31:04;;;;;;;2.47;1.57;;;;;;;12.14;48.26;100599.61;1480643;87;21500;-80
2023/05/12 00:33:30;;;;;;;4.20;1.97;;;;;;;12.10;48.07;100602.72;1477789;88;21403;-80
2023/05/12 00:35:59;;;;;;;6.87;2.23;;;;;;;12.06;48.12;100598.72;1478342;88;21368;-80
2023/05/12 00:38:25;;;;;;;4.67;1.83;;;;;;;12.01;48.56;100606.29;1464176;87;21406;-80
2023/05/12 00:40:51;;;;;;;2.93;2.10;;;;;;;11.94;48.52;100600.77;1468777;88;21419;-79
2023/05/12 00:43:17;;;;;;;3.73;1.80;;;;;;;11.90;48.39;100608.67;1470625;87;22411;-81
2023/05/12 00:45:44;;;;;;;4.37;2.10;;;;;;;11.86;48.30;100603.34;1473825;87;21310;-78
2023/05/12 00:48:10;;;;;;;4.00;1.67;;;;;;;11.82;48.60;100601.93;1472650;88;21383;-78
2023/05/12 00:50:37;;;;;;;3.37;1.60;;;;;;;11.78;48.48;100596.59;1466217;87;22426;-78
2023/05/12 00:53:05;;;;;;;5.07;2.00;;;;;;;11.74;48.81;100600.88;1472158;88;21303;-78
2023/05/12 00:55:32;;;;;;;2.03;1.60;;;;;;;11.71;48.50;100601.19;1479212;87;22448;-78
2023/05/12 00:57:59;;;;;;;1.80;1.47;;;;;;;11.67;48.52;100594.50;1473965;88;21347;-78
2023/05/12 01:00:25;;;;;;;2.40;1.70;;;;;;;11.64;48.78;100595.30;1478174;87;21362;-78
2023/05/12 01:02:51;;;;;;;2.43;1.80;;;;;;;11.61;48.67;100600.91;1481436;87;22315;-78
2023/05/12 01:05:17;;;;;;;2.67;1.73;;;;;;;11.58;48.98;100601.20;1471609;88;21493;-78
2023/05/12 01:07:46;;;;;;;6.27;1.93;;;;;;;11.55;48.70;100603.66;1472448;87;21413;-78
2023/05/12 01:10:20;;;;;;;3.47;2.30;;;;;;;11.52;48.96;100606.11;1479955;87;21508;-78
2023/05/12 01:12:47;;;;;;;3.83;1.57;;;;;;;11.50;49.17;100601.94;1462554;88;22493;-78
2023/05/12 01:15:13;;;;;;;3.40;1.90;;;;;;;11.48;48.87;100601.28;1483188;88;21354;-80
2023/05/12 01:17:48;;;;;;;6.33;2.07;;;;;;;11.44;48.95;100612.64;1469568;87;21406;-80
2023/05/12 01:20:17;;;;;;;5.37;2.10;;;;;;;11.40;49.00;100609.97;1458713;88;21442;-81
2023/05/12 01:22:45;;;;;;;7.07;1.77;;;;;;;11.36;49.06;100609.90;1472298;87;21383;-79
2023/05/12 01:25:14;;;;;;;4.80;2.10;;;;;;;11.30;49.29;100604.70;1472755;88;21369;-79
2023/05/12 01:27:41;;;;;;;3.57;2.07;;;;;;;11.27;49.48;100610.30;1470306;87;21457;-79
2023/05/12 01:30:11;;;;;;;9.23;2.30;;;;;;;11.23;49.24;100612.91;1468065;88;22371;-79
2023/05/12 01:32:39;;;;;;;4.80;2.00;;;;;;;11.18;49.78;100606.37;1467989;88;21562;-78
2023/05/12 01:35:06;;;;;;;3.80;2.10;;;;;;;11.11;49.72;100603.50;1469613;87;22389;-79
2023/05/12 01:37:32;;;;;;;8.37;3.27;;;;;;;11.05;49.89;100607.56;1466981;87;21380;-78
2023/05/12 01:39:58;;;;;;;4.70;1.80;;;;;;;11.01;49.81;100603.52;1476250;87;21515;-79
2023/05/12 01:42:24;;;;;;;4.83;2.40;;;;;;;10.97;50.24;100603.98;1476520;88;21338;-79
2023/05/12 01:44:50;;;;;;;7.13;2.13;;;;;;;10.93;50.29;100603.41;1469162;88;21375;-79
2023/05/12 01:47:17;;;;;;;7.83;2.20;;;;;;;10.87;51.41;100604.48;1472085;87;22139;-78
2023/05/12 01:49:57;;;;;;;3.80;2.20;;;;;;;10.81;50.83;100603.25;1473082;87;21324;-78
2023/05/12 01:52:24;;;;;;;2.90;2.08;;;;;;;10.74;51.19;100599.04;1457605;89;21484;-78
2023/05/12 01:54:50;;;;;;;3.40;2.03;;;;;;;10.68;51.74;100596.97;1447344;89;21462;-77
2023/05/12 01:57:17;;;;;;;5.27;2.73;;;;;;;10.61;52.71;100598.51;1500991;85;22241;-78
2023/05/12 01:59:43;;;;;;;4.73;2.10;;;;;;;10.51;52.31;100606.48;1498597;85;21420;-79
2023/05/12 02:02:11;;;;;;;2.67;2.10;;;;;;;10.42;52.90;100609.98;1503514;85;22283;-79
2023/05/12 02:04:37;;;;;;;4.10;2.37;;;;;;;10.34;53.77;100602.75;1503588;86;21351;-80
2023/05/12 02:07:03;;;;;;;4.40;1.90;;;;;;;10.29;53.10;100601.01;1505606;85;22300;-80
2023/05/12 02:09:29;;;;;;;6.40;2.50;;;;;;;10.23;53.40;100602.87;1504214;85;21339;-79
2023/05/12 02:11:56;;;;;;;4.17;2.40;;;;;;;10.16;54.20;100604.42;1503050;85;22418;-79
2023/05/12 02:14:22;;;;;;;4.50;2.37;;;;;;;10.07;54.84;100605.23;1481485;85;21398;-79
2023/05/12 02:16:51;;;;;;;5.90;2.43;;;;;;;9.92;54.66;100606.98;1513537;85;21323;-79
2023/05/12 02:19:16;;;;;;;4.73;2.30;;;;;;;9.84;54.45;100608.19;1524461;84;21493;-79
2023/05/12 02:21:44;;;;;;;6.47;2.73;;;;;;;9.76;54.69;100608.53;1518813;84;21487;-79
2023/05/12 02:24:10;;;;;;;3.53;2.30;;;;;;;9.70;54.86;100603.31;1506344;85;21419;-80
2023/05/12 02:26:36;;;;;;;6.33;2.80;;;;;;;9.64;55.67;100599.90;1517825;86;21450;-79
2023/05/12 02:29:03;;;;;;;3.10;2.00;;;;;;;9.63;56.04;100597.71;1514796;86;21310;-79
2023/05/12 02:31:29;;;;;;;3.73;2.33;;;;;;;9.61;56.53;100601.00;1512948;86;21907;-79
2023/05/12 02:33:55;;;;;;;4.83;2.50;;;;;;;9.59;55.82;100600.78;1521386;85;21358;-79
2023/05/12 02:36:22;;;;;;;3.67;2.53;;;;;;;9.58;56.08;100607.02;1529038;85;21535;-79
2023/05/12 02:38:48;;;;;;;4.67;2.53;;;;;;;9.57;55.79;100603.55;1525056;85;21366;-78
2023/05/12 02:41:14;;;;;;;4.40;2.13;;;;;;;9.60;55.82;100601.12;1515183;85;22458;-79
2023/05/12 02:43:40;;;;;;;6.97;3.00;;;;;;;9.63;55.52;100603.48;1514372;86;21294;-79
2023/05/12 02:46:07;;;;;;;5.13;2.60;;;;;;;9.64;55.49;100601.22;1507929;85;21465;-80
2023/05/12 02:48:33;;;;;;;3.60;2.10;;;;;;;9.66;56.70;100601.89;1499193;85;21294;-79
2023/05/12 02:51:00;;;;;;;2.80;2.10;;;;;;;9.65;56.45;100602.87;1516251;85;22447;-79
2023/05/12 02:53:27;;;;;;;5.53;2.40;;;;;;;9.64;56.30;100604.69;1510427;85;21361;-79
2023/05/12 02:55:53;;;;;;;5.07;2.53;;;;;;;9.63;56.77;100601.67;1487714;85;21405;-81
2023/05/12 02:58:19;;;;;;;3.13;2.20;;;;;;;9.63;57.02;100606.96;1456473;89;22321;-80
2023/05/12 03:00:46;;;;;;;6.47;2.80;;;;;;;9.61;57.22;100609.39;1468444;88;21279;-80
2023/05/12 03:03:12;;;;;;;4.20;2.60;;;;;;;9.59;57.15;100607.39;1493548;85;21531;-80
2023/05/12 03:05:38;;;;;;;2.67;1.93;;;;;;;9.58;57.15;100599.95;1513836;85;22125;-81
2023/05/12 03:08:05;;;;;;;3.60;2.47;;;;;;;9.60;57.09;100605.09;1507827;85;21435;-80
2023/05/12 03:10:31;;;;;;;3.23;2.07;;;;;;;9.65;56.85;100604.20;1509455;85;21288;-80
2023/05/12 03:12:57;;;;;;;3.67;2.20;;;;;;;9.70;57.36;100608.59;1496727;85;21273;-80
2023/05/12 03:15:23;;;;;;;3.70;2.33;;;;;;;9.74;56.47;100606.01;1509155;86;22277;-80
2023/05/12 03:17:49;;;;;;;12.67;3.43;;;;;;;9.82;56.52;100614.09;1468919;87;21480;-80
2023/05/12 03:20:16;;;;;;;3.87;2.47;;;;;;;9.89;56.65;100615.19;1483057;85;21454;-81
2023/05/12 03:22:42;;;;;;;3.47;2.93;;;;;;;9.97;56.20;100612.36;1470844;86;21322;-81
2023/05/12 03:25:09;;;;;;;2.70;1.93;;;;;;;10.04;55.87;100612.13;1498148;85;21258;-80
2023/05/12 03:27:35;;;;;;;8.83;3.27;;;;;;;10.09;56.37;100609.91;1481477;86;22035;-81
2023/05/12 03:30:03;;;;;;;3.53;2.47;;;;;;;10.14;55.76;100618.27;1472322;88;22254;-81
2023/05/12 03:32:30;;;;;;;4.00;1.97;;;;;;;10.20;55.65;100621.67;1486121;88;21330;-80
2023/05/12 03:34:56;;;;;;;2.63;2.13;;;;;;;10.25;55.80;100627.37;1478151;88;21403;-80
2023/05/12 03:37:22;;;;;;;5.37;2.13;;;;;;;10.31;55.34;100628.17;1475511;86;22756;-80
2023/05/12 03:39:48;;;;;;;5.33;2.57;;;;;;;10.40;55.19;100627.81;1481203;88;21270;-80
2023/05/12 03:42:15;;;;;;;2.83;1.90;;;;;;;10.45;55.14;100626.91;1469741;88;21491;-80
2023/05/12 03:44:41;;;;;;;4.90;1.97;;;;;;;10.52;54.92;100623.19;1485705;88;21252;-79
2023/05/12 03:47:07;;;;;;;2.67;1.90;;;;;;;10.60;54.76;100628.61;1476082;88;21419;-80
2023/05/12 03:49:34;;;;;;;5.17;2.87;;;;;;;10.67;54.67;100626.22;1484827;88;21337;-80
2023/05/12 03:52:00;;;;;;;5.87;2.20;;;;;;;10.75;54.65;100632.47;1481527;88;21361;-80
2023/05/12 03:54:26;;;;;;;3.27;2.10;;;;;;;10.82;54.09;100634.89;1484632;86;21519;-81
2023/05/12 03:56:52;;;;;;;6.47;2.13;;;;;;;10.89;54.05;100638.28;1511397;86;22263;-81
2023/05/12 03:59:18;;;;;;;4.50;2.07;;;;;;;10.96;53.96;100643.33;1505344;86;21361;-79
2023/05/12 04:01:45;;;;;;;5.90;2.40;;;;;;;11.02;53.69;100646.75;1504226;86;21420;-80
2023/05/12 04:04:11;;;;;;;5.83;2.17;;;;;;;11.04;53.53;100646.09;1488787;86;22467;-79
2023/05/12 04:06:37;;;;;;;4.80;2.40;;;;;;;11.08;53.35;100644.84;1472463;88;21337;-80
2023/05/12 04:09:03;;;;;;;5.03;2.20;;;;;;;11.15;53.41;100646.41;1461547;88;21366;-80
2023/05/12 04:11:29;;;;;;;3.93;2.40;;;;;;;11.19;53.72;100650.42;1475938;88;21865;-80
2023/05/12 04:13:56;;;;;;;3.83;2.50;;;;;;;11.23;53.26;100653.97;1478833;88;21381;-79
2023/05/12 04:16:22;;;;;;;21.00;3.33;;;;;;;11.25;53.00;100655.16;1453453;89;21382;-80
2023/05/12 04:18:48;;;;;;;5.73;2.50;;;;;;;11.28;52.84;100657.02;1469115;86;21396;-80
2023/05/12 04:21:14;;;;;;;6.80;2.53;;;;;;;11.33;52.66;100656.56;1495766;85;21302;-80
2023/05/12 04:23:40;;;;;;;2.97;2.13;;;;;;;11.38;52.58;100657.47;1504067;85;21346;-80
2023/05/12 04:26:07;;;;;;;4.67;2.70;;;;;;;11.41;52.64;100659.32;1497840;85;22277;-81
2023/05/12 04:28:33;;;;;;;4.67;2.03;;;;;;;11.45;52.52;100655.88;1457849;88;21483;-80
2023/05/12 04:31:03;;;;;;;7.70;2.40;;;;;;;11.50;52.37;100660.25;1495124;85;21310;-81
2023/05/12 04:33:30;;;;;;;4.42;2.70;;;;;;;11.53;52.32;100658.63;1502542;85;21331;-79
2023/05/12 04:35:57;;;;;;;4.87;2.43;;;;;;;11.58;52.47;100657.70;1498270;85;21391;-81
2023/05/12 04:38:24;;;;;;;3.43;2.03;;;;;;;11.63;52.29;100658.09;1475040;86;21506;-80
2023/05/12 04:40:50;;;;;;;4.30;2.23;;;;;;;11.69;52.16;100660.15;1484447;87;21498;-80
2023/05/12 04:43:16;;;;;;;5.37;2.20;;;;;;;11.75;52.15;100651.59;1499217;85;21397;-79
2023/05/12 04:45:43;;;;;;;6.40;2.40;;;;;;;11.83;52.13;100651.34;1501147;85;21317;-80
2023/05/12 04:48:09;;;;;;;5.63;2.30;;;;;;;11.90;51.98;100652.44;1504903;85;21429;-80
2023/05/12 04:50:35;;;;;;;6.00;2.00;;;;;;;11.99;52.08;100654.17;1498452;86;22342;-80
2023/05/12 04:53:02;;;;;;;6.47;2.30;;;;;;;12.05;51.40;100655.39;1504194;86;21524;-80
2023/05/12 04:55:29;;;;;;;3.87;2.33;;;;;;;12.11;51.61;100655.64;1466542;86;21332;-80
2023/05/12 04:57:55;;;;;;;6.63;2.30;;;;;;;12.19;52.05;100657.51;1507835;86;22433;-80
2023/05/12 05:00:22;;;;;;;8.43;2.70;;;;;;;12.22;51.67;100655.88;1474820;86;21384;-80
2023/05/12 05:02:48;;;;;;;9.90;2.20;;;;;;;12.28;50.91;100658.41;1496777;86;21498;-80
2023/05/12 05:05:15;;;;;;;8.93;3.00;;;;;;;12.34;51.13;100665.30;1504777;86;21420;-80
2023/05/12 05:07:41;;;;;;;5.30;2.30;;;;;;;12.42;50.64;100662.67;1502991;86;21346;-80
2023/05/12 05:10:08;;;;;;;10.17;2.63;;;;;;;12.50;50.67;100661.92;1507120;85;21273;-80
2023/05/12 05:12:34;;;;;;;3.87;2.57;;;;;;;12.58;50.59;100661.98;1516788;85;22190;-80
2023/05/12 05:15:01;;;;;;;7.97;2.63;;;;;;;12.65;50.63;100660.86;1502875;85;21465;-79
2023/05/12 05:17:27;;;;;;;3.40;2.17;;;;;;;12.73;50.00;100662.75;1514694;85;21493;-79
2023/05/12 05:19:53;;;;;;;3.17;1.87;;;;;;;12.80;50.05;100663.77;1502276;85;22351;-80
2023/05/12 05:22:20;;;;;;;6.40;2.00;;;;;;;12.88;50.17;100662.50;1512539;85;21427;-80
2023/05/12 05:24:46;;;;;;;3.80;2.33;;;;;;;12.93;49.33;100666.86;1506287;85;21473;-81
2023/05/12 05:27:12;;;;;;;3.63;1.80;;;;;;;13.02;49.09;100667.23;1492827;85;21889;-81
2023/05/12 05:29:39;;;;;;;4.03;2.23;;;;;;;13.05;48.50;100670.08;1513850;85;21331;-80
2023/05/12 05:32:05;;;;;;;5.97;2.47;;;;;;;13.13;48.73;100666.64;1489540;86;21376;-80
2023/05/12 05:34:31;;;;;;;2.83;2.43;;;;;;;13.21;48.57;100668.02;1516839;86;21472;-80
2023/05/12 05:36:57;;;;;;;3.43;2.23;;;;;;;13.31;48.98;100670.07;1511564;86;21368;-80
2023/05/12 05:39:24;;;;;;;10.57;2.93;;;;;;;13.42;48.48;100668.96;1510215;85;21375;-80
2023/05/12 05:41:51;;;;;;;6.20;2.50;;;;;;;13.50;48.26;100675.14;1511337;85;21258;-80
2023/05/12 05:44:17;;;;;;;3.90;2.20;;;;;;;13.59;47.85;100669.86;1477260;86;21516;-80
2023/05/12 05:46:43;;;;;;;3.10;1.83;;;;;;;13.68;47.45;100666.22;1508303;85;21301;-80
2023/05/12 05:49:09;;;;;;;12.90;2.63;;;;;;;13.73;47.33;100670.56;1466659;86;22329;-81
2023/05/12 05:51:35;;;;;;;5.77;2.60;;;;;;;13.84;47.61;100670.27;1510866;85;21338;-81
2023/05/12 05:54:02;;;;;;;6.13;2.10;;;;;;;13.88;47.40;100675.58;1506803;85;21487;-81
2023/05/12 05:56:29;;;;;;;7.60;2.70;;;;;;;13.98;46.57;100673.62;1504832;85;21469;-80
2023/05/12 05:58:55;;;;;;;5.47;2.00;;;;;;;14.07;46.77;100674.47;1462649;87;21331;-81
2023/05/12 06:01:22;;;;;;;9.67;2.73;;;;;;;14.16;46.34;100672.14;1484812;87;21309;-81
2023/05/12 06:03:48;;;;;;;3.23;2.50;;;;;;;14.26;45.96;100678.63;1484697;87;21331;-81
2023/05/12 06:06:14;;;;;;;9.83;2.77;;;;;;;14.39;46.66;100681.64;1461351;86;21327;-82
2023/05/12 06:08:40;;;;;;;4.60;2.63;;;;;;;14.49;46.22;100678.80;1484821;86;21499;-81
2023/05/12 06:11:07;;;;;;;5.47;2.33;;;;;;;14.58;46.58;100680.98;1505124;86;21979;-82
2023/05/12 06:13:35;;;;;;;3.23;2.30;;;;;;;14.69;46.04;100677.98;1487176;86;22381;-82
2023/05/12 06:16:01;;;;;;;8.93;2.57;;;;;;;14.78;45.60;100674.30;1490313;86;21383;-81
2023/05/12 06:18:27;;;;;;;7.40;2.60;;;;;;;14.81;45.43;100672.62;1507517;86;22484;-82
2023/05/12 06:20:53;;;;;;;4.63;2.40;;;;;;;14.92;45.79;100673.29;1511018;86;21974;-81
2023/05/12 06:23:20;;;;;;;5.57;2.60;;;;;;;15.01;45.80;100677.59;1484837;86;21333;-81
2023/05/12 06:25:48;;;;;;;4.57;2.37;;;;;;;15.05;45.49;100672.27;1508314;86;21330;-81
2023/05/12 06:28:14;;;;;;;5.73;2.30;;;;;;;15.14;45.11;100669.08;1509830;86;21347;-82
2023/05/12 06:30:41;;;;;;;7.20;3.10;;;;;;;15.23;44.71;100666.20;1478307;86;21566;-81
2023/05/12 06:33:07;;;;;;;2.20;1.77;;;;;;;15.32;44.33;100675.83;1484805;86;21457;-82
2023/05/12 06:35:33;;;;;;;5.10;2.60;;;;;;;15.42;44.21;100670.79;1510315;86;21575;-81
2023/05/12 06:37:59;;;;;;;8.60;2.50;;;;;;;15.54;44.24;100662.25;1509777;86;21844;-82
2023/05/12 06:40:26;;;;;;;7.20;2.97;;;;;;;15.64;43.64;100671.36;1505377;86;22315;-80
2023/05/12 06:42:52;;;;;;;3.20;2.10;;;;;;;15.69;43.68;100666.36;1509857;85;21419;-81
2023/05/12 06:45:18;;;;;;;7.63;2.27;;;;;;;15.84;43.84;100668.28;1465546;86;21294;-82
2023/05/12 06:47:45;;;;;;;6.73;2.73;;;;;;;15.95;43.80;100663.88;1486351;86;21368;-81
2023/05/12 06:50:11;;;;;;;6.73;2.73;;;;;;;16.08;43.74;100666.78;1508242;86;21383;-81
2023/05/12 06:52:37;;;;;;;7.87;2.20;;;;;;;16.13;42.35;100665.74;1487753;86;22451;-81
2023/05/12 06:55:04;;;;;;;7.80;2.43;;;;;;;16.18;42.15;100671.39;1511182;86;21351;-81
2023/05/12 06:57:30;;;;;;;5.17;2.30;;;;;;;16.22;42.17;100668.67;1480243;87;21471;-80
2023/05/12 06:59:57;;;;;;;7.27;2.03;;;;;;;16.16;41.28;100665.39;1476702;87;21450;-82
2023/05/12 07:02:23;;;;;;;5.70;2.40;;;;;;;16.21;41.72;100660.35;1478047;87;21359;-81
2023/05/12 07:04:49;;;;;;;8.97;2.30;;;;;;;16.22;41.74;100659.84;1479619;87;21303;-80
2023/05/12 07:07:15;;;;;;;7.00;2.20;;;;;;;16.29;42.00;100663.98;1477403;87;22481;-81
2023/05/12 07:09:41;;;;;;;3.20;2.30;;;;;;;16.35;42.19;100665.93;1495313;86;21428;-82
2023/05/12 07:12:08;;;;;;;6.07;2.23;;;;;;;16.39;41.61;100671.23;1467774;88;21523;-82
2023/05/12 07:14:34;;;;;;;2.47;2.03;;;;;;;16.45;41.28;100674.52;1465589;88;21487;-81
2023/05/12 07:17:01;;;;;;;17.37;2.53;;;;;;;16.52;41.25;100667.97;1494111;87;21392;-80
2023/05/12 07:19:28;;;;;;;12.77;2.20;;;;;;;16.52;41.92;100670.13;1467686;88;21419;-81
2023/05/12 07:21:54;;;;;;;3.83;2.10;;;;;;;16.70;41.87;100669.79;1453014;88;21604;-81
2023/05/12 07:24:20;;;;;;;9.17;2.47;;;;;;;16.81;41.28;100668.55;1464756;87;21413;-81
2023/05/12 07:26:47;;;;;;;6.03;1.97;;;;;;;16.97;41.81;100659.01;1462724;87;22249;-81
2023/05/12 07:29:13;;;;;;;10.10;2.33;;;;;;;17.17;40.91;100663.81;1482376;87;22411;-81
2023/05/12 07:31:39;;;;;;;6.43;2.30;;;;;;;17.29;40.68;100664.99;1482459;87;21583;-82
2023/05/12 07:34:06;;;;;;;4.30;2.43;;;;;;;17.42;40.75;100658.49;1480391;87;21420;-81
2023/05/12 07:36:32;;;;;;;3.20;2.17;;;;;;;17.56;40.48;100660.83;1482993;87;21576;-82
2023/05/12 07:38:58;;;;;;;8.07;3.23;;;;;;;17.72;40.12;100652.59;1480661;87;21405;-81
2023/05/12 07:41:25;;;;;;;7.33;2.13;;;;;;;17.91;40.11;100657.84;1481159;87;21502;-81
2023/05/12 07:43:51;;;;;;;3.67;2.60;;;;;;;18.11;40.04;100663.92;1480746;87;21339;-80
2023/05/12 07:46:17;;;;;;;6.60;2.90;;;;;;;18.29;39.32;100656.77;1485141;87;21442;-82
2023/05/12 07:48:59;;;;;;;7.63;2.33;;;;;;;18.46;39.04;100660.31;1441036;87;21469;-82
2023/05/12 07:51:25;;;;;;;5.00;2.23;;;;;;;18.58;38.06;100662.47;1454290;87;22740;-81
2023/05/12 07:53:54;;;;;;;5.77;1.93;;;;;;;18.51;37.99;100661.09;1464072;87;22309;-81
2023/05/12 07:56:20;;;;;;;5.53;2.67;;;;;;;18.49;38.74;100661.78;1471714;87;21598;-80
2023/05/12 07:58:47;;;;;;;3.50;2.10;;;;;;;18.62;38.80;100669.12;1480013;87;21390;-80
2023/05/12 08:01:13;;;;;;;8.93;2.33;;;;;;;18.65;38.03;100652.12;1481202;87;21325;-81
2023/05/12 08:03:39;;;;;;;4.87;2.30;;;;;;;18.64;38.04;100667.91;1464633;87;21347;-81
2023/05/12 08:06:06;;;;;;;3.30;2.10;;;;;;;18.68;38.35;100653.59;1467862;87;21399;-81
2023/05/12 08:08:33;;;;;;;5.30;2.30;;;;;;;18.70;38.54;100646.16;1484511;87;22381;-82
2023/05/12 08:11:00;;;;;;;4.23;2.20;;;;;;;18.58;38.42;100663.81;1391593;89;21266;-82
2023/05/12 08:13:26;;;;;;;6.10;2.60;;;;;;;18.61;39.26;100660.22;1406482;87;21243;-80
2023/05/12 08:15:52;;;;;;;10.27;2.83;;;;;;;18.82;38.82;100655.38;1406582;87;21340;-82
2023/05/12 08:18:19;;;;;;;5.63;2.83;;;;;;;18.96;38.84;100664.83;1434811;87;21513;-82
2023/05/12 08:20:49;;;;;;;9.07;2.50;;;;;;;19.03;38.00;100667.87;1480056;87;22396;-82
2023/05/12 08:23:16;;;;;;;8.60;2.50;;;;;;;19.06;37.88;100665.31;1483344;87;21398;-82
2023/05/12 08:25:43;;;;;;;3.73;2.50;;;;;;;19.02;37.38;100664.03;1481973;87;21532;-83
2023/05/12 08:28:11;;;;;;;13.03;2.53;;;;;;;19.07;37.96;100661.59;1479786;87;21381;-82
2023/05/12 08:30:37;;;;;;;5.53;2.00;;;;;;;19.10;37.34;100662.55;1421649;88;21191;-81
2023/05/12 08:33:04;;;;;;;5.83;2.00;;;;;;;19.16;36.90;100665.28;1426859;86;21207;-82
2023/05/12 08:35:30;;;;;;;3.73;2.63;;;;;;;19.25;37.39;100667.29;1435991;86;21915;-82
2023/05/12 08:37:58;;;;;;;6.78;2.22;;;;;;;19.28;37.32;100672.77;1507492;86;22587;-84
2023/05/12 08:40:25;;;;;;;9.67;3.10;;;;;;;19.33;36.83;100676.52;1504304;86;21420;-83
2023/05/12 08:43:08;;;;;;;7.97;2.53;;;;;;;19.42;36.98;100669.61;1506109;86;22491;-83
2023/05/12 08:45:37;;;;;;;4.53;2.07;;;;;;;19.49;37.08;100674.52;1504735;86;22463;-83
2023/05/12 08:48:07;;;;;;;12.63;2.30;;;;;;;19.52;37.06;100678.14;1506333;86;21435;-83
2023/05/12 08:50:37;;;;;;;5.65;2.42;;;;;;;19.63;37.15;100680.77;1490418;86;21391;-82
2023/05/12 08:53:06;;;;;;;5.62;2.30;;;;;;;19.60;36.88;100666.71;1503060;86;21657;-82
2023/05/12 08:55:33;;;;;;;5.17;2.22;;;;;;;19.58;36.62;100671.97;1500831;86;21272;-83
2023/05/12 08:58:02;;;;;;;7.50;2.10;;;;;;;19.66;36.64;100674.51;1423153;86;22279;-82
2023/05/12 09:00:30;;;;;;;3.27;1.67;;;;;;;19.78;36.23;100674.75;1417994;86;21377;-84
2023/05/12 09:02:58;;;;;;;8.95;2.27;;;;;;;19.84;36.40;100676.11;1481001;86;21974;-82
2023/05/12 09:05:28;;;;;;;3.90;2.15;;;;;;;20.04;36.27;100676.67;1482958;88;21836;-83
2023/05/12 09:07:55;;;;;;;7.03;2.20;;;;;;;20.22;36.03;100674.22;1468762;88;21491;-82
2023/05/12 09:10:24;;;;;;;3.98;2.42;;;;;;;20.51;35.88;100684.27;1403857;88;21248;-83
2023/05/12 09:12:53;;;;;;;10.50;2.50;;;;;;;20.61;35.79;100684.72;1460499;88;21446;-82
2023/05/12 09:15:25;;;;;;;10.95;2.72;;;;;;;20.86;35.87;100681.37;1488107;85;21376;-82
2023/05/12 09:17:51;;;;;;;3.87;2.30;;;;;;;20.97;35.96;100684.78;1500206;85;22342;-84
2023/05/12 09:20:18;;;;;;;7.85;2.30;;;;;;;20.94;35.18;100688.73;1503237;86;21536;-83
2023/05/12 09:22:44;;;;;;;13.83;3.33;;;;;;;20.77;34.53;100685.33;1504339;86;21344;-84
2023/05/12 09:25:19;;;;;;;6.95;2.40;;;;;;;20.84;35.36;100679.44;1504198;86;21551;-85
2023/05/12 09:27:52;;;;;;;6.22;2.35;;;;;;;20.87;35.43;100687.09;1503787;86;21284;-84
2023/05/12 09:30:30;;;;;;;3.50;2.12;;;;;;;20.98;35.41;100680.25;1469822;88;21432;-82
2023/05/12 09:33:10;;;;;;;5.42;1.98;;;;;;;21.01;35.35;100686.03;1482071;88;21461;-80
2023/05/12 09:35:44;;;;;;;7.60;2.20;;;;;;;21.16;34.47;100682.56;1480671;88;21559;-80
2023/05/12 09:38:13;;;;;;;3.15;1.87;;;;;;;21.23;34.75;100687.92;1390273;88;21256;-82
2023/05/12 09:40:39;;;;;;;5.90;2.40;;;;;;;21.27;34.51;100688.35;1401920;88;21382;-82
2023/05/12 09:43:06;;;;;;;7.60;2.05;;;;;;;21.26;34.69;100692.91;1419122;88;21366;-80
2023/05/12 09:45:37;;;;;;;4.60;2.10;;;;;;;21.09;34.32;100695.72;1430437;86;21233;-81
2023/05/12 09:48:12;;;;;;;2.55;1.85;;;;;;;20.92;34.84;100697.53;1551910;86;22327;-82
2023/05/12 09:50:47;;;;;;;10.38;2.35;;;;;;;20.94;34.55;100698.65;1502704;86;22394;-82
2023/05/12 09:53:16;;;;;;;4.22;1.87;;;;;;;20.69;33.68;100691.77;1586048;85;21241;-82
2023/05/12 09:55:47;;;;;;;8.45;2.00;;;;;;;20.43;35.54;100700.63;1538858;85;21406;-81
2023/05/12 09:58:17;;;;;;;2.72;1.80;;;;;;;20.48;35.15;100696.28;1516340;85;21786;-83
2023/05/12 10:00:44;;;;;;;6.83;2.52;;;;;;;20.69;35.15;100693.11;1515367;85;22183;-82
2023/05/12 10:03:17;;;;;;;2.35;1.42;;;;;;;20.96;35.23;100691.20;1512316;84;21413;-85
2023/05/12 10:05:58;;;;;;;5.62;2.27;;;;;;;21.20;35.54;100688.34;1605245;85;21178;-83
2023/05/12 10:08:35;;;;;;;2.37;2.17;;;;;;;21.54;34.55;100691.27;1444575;85;21311;-82
2023/05/12 10:11:03;;;;;;;5.50;1.92;;;;;;;21.59;33.83;100689.30;1430394;85;22671;-83
2023/05/12 10:13:31;;;;;;;3.52;1.62;;;;;;;21.60;33.33;100690.41;1433738;85;21446;-82
2023/05/12 10:15:59;;;;;;;3.85;1.37;;;;;;;21.45;33.37;100683.13;1434833;85;21267;-82
2023/05/12 10:18:25;;;;;;;5.42;2.00;;;;;;;21.25;33.35;100691.77;1439622;85;21332;-82
2023/05/12 10:20:55;;;;;;;4.10;2.52;;;;;;;21.02;33.79;100697.09;1518576;85;21347;-81
2023/05/12 10:23:22;;;;;;;4.10;1.50;;;;;;;21.22;33.97;100693.01;1514491;85;22331;-82
2023/05/12 10:25:48;;;;;;;2.17;1.57;;;;;;;21.29;33.75;100692.98;1516796;84;21347;-82
2023/05/12 10:28:16;;;;;;;6.22;1.80;;;;;;;21.63;34.15;100702.11;1517580;85;21339;-82
2023/05/12 10:30:43;;;;;;;6.72;1.75;;;;;;;21.78;33.67;100702.35;1519613;85;21325;-81
2023/05/12 10:33:10;;;;;;;5.47;1.87;;;;;;;21.91;33.22;100701.48;1517624;85;21425;-81
2023/05/12 10:35:38;;;;;;;2.10;1.62;;;;;;;21.98;33.37;100694.17;1519313;85;21355;-81
2023/05/12 10:38:11;;;;;;;2.67;2.00;;;;;;;21.98;32.75;100699.06;1504124;85;21303;-81
2023/05/12 10:41:00;;;;;;;4.97;1.72;;;;;;;21.76;32.43;100693.69;1517420;85;21310;-80
2023/05/12 10:43:42;;;;;;;3.08;1.32;;;;;;;21.63;32.75;100693.20;1486444;85;21420;-82
2023/05/12 10:46:21;;;;;;;9.33;1.92;;;;;;;21.50;33.72;100692.75;1518517;85;21340;-81
2023/05/12 10:49:03;;;;;;;4.62;1.45;;;;;;;21.62;33.26;100685.66;1518662;85;21355;-81
2023/05/12 10:51:36;;;;;;;4.05;1.55;;;;;;;21.49;32.26;100687.07;1517845;85;22382;-80
2023/05/12 10:54:06;;;;;;;6.78;1.65;;;;;;;21.38;32.33;100678.30;1518841;84;21354;-82
2023/05/12 10:56:41;;;;;;;5.22;1.67;;;;;;;21.38;32.78;100676.96;1507190;85;21491;-81
2023/05/12 10:59:21;;;;;;;3.72;1.75;;;;;;;21.37;32.26;100675.28;1499297;85;21443;-79
2023/05/12 11:02:07;;;;;;;5.55;1.85;;;;;;;21.13;32.98;100683.52;1515953;85;22190;-80
2023/05/12 11:04:54;;;;;;;7.30;1.57;;;;;;;20.90;32.44;100683.45;1523531;85;21391;-80
2023/05/12 11:07:28;;;;;;;4.75;1.90;;;;;;;20.87;33.44;100691.12;1517683;85;22228;-80
2023/05/12 11:09:56;;;;;;;2.95;1.60;;;;;;;20.85;33.36;100687.80;1518839;85;21516;-80
2023/05/12 11:12:25;;;;;;;3.05;2.05;;;;;;;20.88;33.93;100686.04;1434627;85;21370;-83
2023/05/12 11:14:55;;;;;;;6.83;1.82;;;;;;;20.98;33.94;100682.41;1463603;85;21317;-81
2023/05/12 11:17:20;;;;;;;6.53;1.47;;;;;;;20.92;33.40;100681.91;1514532;85;21375;-82
2023/05/12 11:19:49;;;;;;;2.85;1.67;;;;;;;20.80;33.24;100684.91;1515867;85;21354;-81
2023/05/12 11:22:21;;;;;;;9.90;1.85;;;;;;;20.69;33.58;100685.04;1516150;85;21789;-81
2023/05/12 11:24:48;;;;;;;10.38;1.60;;;;;;;20.67;33.99;100678.51;1607867;85;21127;-80
2023/05/12 11:27:17;;;;;;;1.77;1.50;;;;;;;20.77;33.19;100692.05;1511218;85;21525;-80
2023/05/12 11:29:47;;;;;;;3.37;1.72;;;;;;;20.93;33.18;100687.59;1504019;85;22249;-80